createdAt,value
2019-04-29T00:01:31.951Z,2.10
2019-04-29T00:04:00.862Z,2.10
2019-04-29T00:06:31.958Z,2.10
2019-04-29T00:09:10.468Z,2.40
2019-04-29T00:11:39.435Z,2.20
2019-04-29T00:14:08.896Z,2.10
2019-04-29T00:16:50.113Z,2.50
2019-04-29T00:19:47.272Z,2.00
2019-04-29T00:22:16.238Z,2.00
2019-04-29T00:24:45.249Z,1.90
2019-04-29T00:27:15.304Z,1.90
2019-04-29T00:29:50.053Z,2.00
2019-04-29T00:32:19.028Z,1.90
2019-04-29T00:34:50.929Z,2.40
2019-04-29T00:37:28.943Z,2.10
2019-04-29T00:40:15.972Z,2.10
2019-04-29T00:43:05.056Z,2.10
2019-04-29T00:45:35.730Z,2.10
2019-04-29T00:48:10.684Z,2.00
2019-04-29T00:50:45.755Z,1.90
2019-04-29T00:53:27.552Z,2.10
2019-04-29T00:55:56.455Z,2.30
2019-04-29T00:58:25.297Z,2.10
2019-04-29T01:00:54.348Z,1.90
2019-04-29T01:03:23.266Z,2.00
2019-04-29T01:05:52.236Z,2.20
2019-04-29T01:08:21.206Z,2.40
2019-04-29T01:10:57.468Z,2.20
2019-04-29T01:13:28.480Z,2.50
2019-04-29T01:15:58.376Z,2.30
2019-04-29T01:18:27.369Z,2.30
2019-04-29T01:20:56.349Z,2.20
2019-04-29T01:23:25.252Z,2.40
2019-04-29T01:25:57.940Z,2.60
2019-04-29T01:28:32.298Z,2.40
2019-04-29T01:31:04.764Z,2.60
2019-04-29T01:33:35.922Z,2.60
2019-04-29T01:36:33.554Z,2.40
2019-04-29T01:39:04.836Z,2.40
2019-04-29T01:41:42.427Z,2.20
2019-04-29T01:44:17.788Z,2.40
2019-04-29T01:46:48.739Z,2.30
2019-04-29T01:49:17.566Z,2.50
2019-04-29T01:51:46.441Z,2.30
2019-04-29T01:54:15.346Z,2.20
2019-04-29T01:56:49.969Z,2.40
2019-04-29T01:59:19.104Z,2.20
2019-04-29T02:01:55.060Z,2.20
2019-04-29T02:04:24.085Z,2.40
2019-04-29T02:06:54.101Z,2.30
2019-04-29T02:09:34.112Z,2.30
2019-04-29T02:12:03.144Z,2.10
2019-04-29T02:14:32.171Z,1.90
2019-04-29T02:17:04.268Z,1.90
2019-04-29T02:19:36.313Z,2.00
2019-04-29T02:22:17.373Z,2.40
2019-04-29T02:24:52.159Z,1.80
2019-04-29T02:27:20.983Z,1.90
2019-04-29T02:29:49.923Z,2.00
2019-04-29T02:32:22.044Z,2.30
2019-04-29T02:35:01.001Z,2.00
2019-04-29T02:37:33.793Z,2.00
2019-04-29T02:40:25.493Z,1.80
2019-04-29T02:43:09.568Z,1.90
2019-04-29T02:45:46.411Z,1.90
2019-04-29T02:48:15.385Z,1.90
2019-04-29T02:50:44.287Z,1.90
2019-04-29T02:53:13.261Z,2.10
2019-04-29T02:55:48.937Z,1.90
2019-04-29T02:58:46.122Z,1.80
2019-04-29T03:01:36.149Z,1.70
2019-04-29T03:04:13.620Z,1.80
2019-04-29T03:06:42.719Z,1.70
2019-04-29T03:09:14.884Z,1.70
2019-04-29T03:11:43.963Z,1.60
2019-04-29T03:14:12.818Z,1.60
2019-04-29T03:16:41.828Z,1.80
2019-04-29T03:19:19.640Z,1.90
2019-04-29T03:21:54.931Z,1.70
2019-04-29T03:24:31.008Z,1.70
2019-04-29T03:27:05.461Z,1.70
2019-04-29T03:29:35.348Z,1.70
2019-04-29T03:32:04.284Z,1.90
2019-04-29T03:34:33.260Z,1.90
2019-04-29T03:37:02.288Z,1.80
2019-04-29T03:39:31.224Z,2.00
2019-04-29T03:42:02.184Z,2.20
2019-04-29T03:44:31.396Z,2.10
2019-04-29T03:47:00.390Z,2.40
2019-04-29T03:49:29.224Z,2.40
2019-04-29T03:51:58.119Z,2.50
2019-04-29T03:54:28.039Z,2.50
2019-04-29T03:56:57.954Z,2.60
2019-04-29T03:59:26.844Z,2.60
2019-04-29T04:02:03.221Z,2.70
2019-04-29T04:04:49.952Z,2.80
2019-04-29T04:07:39.922Z,2.90
2019-04-29T04:10:09.273Z,3.10
2019-04-29T04:12:38.090Z,3.40
2019-04-29T04:15:08.265Z,3.20
2019-04-29T04:17:57.382Z,3.40
2019-04-29T04:20:27.843Z,3.90
2019-04-29T04:22:56.794Z,3.80
2019-04-29T04:25:25.860Z,3.90
2019-04-29T04:27:54.671Z,4.10
2019-04-29T04:30:24.737Z,4.00
2019-04-29T04:32:56.836Z,4.20
2019-04-29T04:35:25.834Z,4.30
2019-04-29T04:37:54.822Z,4.50
2019-04-29T04:40:46.254Z,4.50
2019-04-29T04:43:15.235Z,4.30
2019-04-29T04:45:44.156Z,4.90
2019-04-29T04:48:14.053Z,4.80
2019-04-29T04:50:42.968Z,4.90
2019-04-29T04:53:18.246Z,4.80
2019-04-29T04:55:48.963Z,5.10
2019-04-29T04:58:20.911Z,5.00
2019-04-29T05:00:51.833Z,5.20
2019-04-29T05:03:22.722Z,5.20
2019-04-29T05:05:51.648Z,5.40
2019-04-29T05:08:20.540Z,5.40
2019-04-29T05:10:49.445Z,5.40
2019-04-29T05:13:27.977Z,5.50
2019-04-29T05:15:50.909Z,5.60
2019-04-29T05:18:22.748Z,5.60
2019-04-29T05:20:51.675Z,5.50
2019-04-29T05:23:21.556Z,5.70
2019-04-29T05:25:50.469Z,5.80
2019-04-29T05:28:20.364Z,6.10
2019-04-29T05:30:49.289Z,6.10
2019-04-29T05:33:18.135Z,6.10
2019-04-29T05:36:01.893Z,6.10
2019-04-29T05:38:43.468Z,6.20
2019-04-29T05:41:12.464Z,6.20
2019-04-29T05:43:47.196Z,6.30
2019-04-29T05:46:32.469Z,6.30
2019-04-29T05:49:02.504Z,6.70
2019-04-29T05:51:38.351Z,6.60
2019-04-29T05:54:07.900Z,6.60
2019-04-29T05:56:36.744Z,6.70
2019-04-29T05:59:08.497Z,6.80
2019-04-29T06:01:38.307Z,6.80
2019-04-29T06:04:07.298Z,6.80
2019-04-29T06:06:36.308Z,6.80
2019-04-29T06:09:11.624Z,6.80
2019-04-29T06:11:45.685Z,6.90
2019-04-29T06:14:14.653Z,6.80
2019-04-29T06:16:43.620Z,7.20
2019-04-29T06:19:12.611Z,7.40
2019-04-29T06:21:41.536Z,7.40
2019-04-29T06:24:10.535Z,7.50
2019-04-29T06:26:43.560Z,7.30
2019-04-29T06:29:11.150Z,7.20
2019-04-29T06:31:40.080Z,7.40
2019-04-29T06:34:08.923Z,7.20
2019-04-29T06:36:38.766Z,7.40
2019-04-29T06:39:17.933Z,7.40
2019-04-29T06:41:54.132Z,7.90
2019-04-29T06:44:23.077Z,7.70
2019-04-29T06:46:59.143Z,7.60
2019-04-29T06:49:27.979Z,7.50
2019-04-29T06:51:56.880Z,7.80
2019-04-29T06:54:25.759Z,7.60
2019-04-29T06:56:54.737Z,7.80
2019-04-29T06:59:23.536Z,7.80
2019-04-29T07:01:52.522Z,8.30
2019-04-29T07:04:21.320Z,8.20
2019-04-29T07:06:57.086Z,8.10
2019-04-29T07:09:20.833Z,8.00
2019-04-29T07:11:49.656Z,8.00
2019-04-29T07:14:18.533Z,8.10
2019-04-29T07:16:47.416Z,8.00
2019-04-29T07:19:16.368Z,7.90
2019-04-29T07:21:47.073Z,8.20
2019-04-29T07:24:20.440Z,8.20
2019-04-29T07:26:49.449Z,8.20
2019-04-29T07:29:29.767Z,8.20
2019-04-29T07:31:56.877Z,7.90
2019-04-29T07:34:29.042Z,7.80
2019-04-29T07:37:01.469Z,7.90
2019-04-29T07:39:31.670Z,7.90
2019-04-29T07:42:03.318Z,8.00
2019-04-29T07:44:48.821Z,8.10
2019-04-29T07:47:38.540Z,8.10
2019-04-29T07:50:14.447Z,8.10
2019-04-29T07:53:01.578Z,8.10
2019-04-29T07:55:31.391Z,8.00
2019-04-29T07:58:16.592Z,7.90
2019-04-29T08:00:57.694Z,8.10
2019-04-29T08:03:28.720Z,7.90
2019-04-29T08:06:01.001Z,8.20
2019-04-29T08:08:54.345Z,7.80
2019-04-29T08:11:16.369Z,7.80
2019-04-29T08:13:47.308Z,7.80
2019-04-29T08:16:17.262Z,7.80
2019-04-29T08:18:49.584Z,7.80
2019-04-29T08:21:19.461Z,8.10
2019-04-29T08:23:51.445Z,8.00
2019-04-29T08:26:46.799Z,8.10
2019-04-29T08:29:16.352Z,8.20
2019-04-29T08:32:02.320Z,8.50
2019-04-29T08:34:30.909Z,8.20
2019-04-29T08:36:59.956Z,8.20
2019-04-29T08:39:31.177Z,8.20
2019-04-29T08:42:08.954Z,8.10
2019-04-29T08:45:01.136Z,8.10
2019-04-29T08:47:32.374Z,7.70
2019-04-29T08:50:01.341Z,7.80
2019-04-29T08:52:31.201Z,7.70
2019-04-29T08:55:09.643Z,7.30
2019-04-29T08:57:38.485Z,7.10
2019-04-29T09:00:08.332Z,7.00
2019-04-29T09:02:49.426Z,6.80
2019-04-29T09:05:20.398Z,7.10
2019-04-29T09:07:52.520Z,6.80
2019-04-29T09:10:20.340Z,6.90
2019-04-29T09:12:49.232Z,6.90
2019-04-29T09:15:31.242Z,6.80
2019-04-29T09:18:03.178Z,6.70
2019-04-29T09:20:31.977Z,6.70
2019-04-29T09:23:04.164Z,6.50
2019-04-29T09:26:02.380Z,6.60
2019-04-29T09:28:27.800Z,6.50
2019-04-29T09:30:54.364Z,6.70
2019-04-29T09:33:23.266Z,6.40
2019-04-29T09:35:52.145Z,6.50
2019-04-29T09:38:21.120Z,6.30
2019-04-29T09:40:59.696Z,6.30
2019-04-29T09:44:04.006Z,6.30
2019-04-29T09:46:34.610Z,6.40
2019-04-29T09:49:03.303Z,6.30
2019-04-29T09:51:32.304Z,6.30
2019-04-29T09:54:01.188Z,6.20
2019-04-29T09:56:30.127Z,6.10
2019-04-29T09:59:17.751Z,6.20
2019-04-29T10:01:55.067Z,6.10
2019-04-29T10:04:36.844Z,6.10
2019-04-29T10:07:06.152Z,6.10
2019-04-29T10:09:35.144Z,6.10
2019-04-29T10:12:04.046Z,6.10
2019-04-29T10:14:33.053Z,6.10
2019-04-29T10:17:23.949Z,6.20
2019-04-29T10:20:17.784Z,6.20
2019-04-29T10:22:50.219Z,6.20
2019-04-29T10:25:17.451Z,6.30
2019-04-29T10:27:46.247Z,6.20
2019-04-29T10:30:16.976Z,6.40
2019-04-29T10:32:45.781Z,6.40
2019-04-29T10:35:14.761Z,6.50
2019-04-29T10:37:44.612Z,6.50
2019-04-29T10:40:37.574Z,6.50
2019-04-29T10:43:17.840Z,6.50
2019-04-29T10:46:09.015Z,6.40
2019-04-29T10:48:44.797Z,6.90
2019-04-29T10:51:15.458Z,6.80
2019-04-29T10:53:46.754Z,6.80
2019-04-29T10:56:15.136Z,7.10
2019-04-29T10:58:44.085Z,6.90
2019-04-29T11:02:38.841Z,7.00
2019-04-29T11:05:19.090Z,7.00
2019-04-29T11:07:49.287Z,6.70
2019-04-29T11:10:28.002Z,6.70
2019-04-29T11:12:57.153Z,6.60
2019-04-29T11:15:32.722Z,6.50
2019-04-29T11:18:03.767Z,6.60
2019-04-29T11:20:33.744Z,6.60
2019-04-29T11:23:22.265Z,6.60
2019-04-29T11:26:09.644Z,6.50
2019-04-29T11:28:38.945Z,7.10
2019-04-29T11:31:09.815Z,6.70
2019-04-29T11:33:48.886Z,6.50
2019-04-29T11:36:19.276Z,6.60
2019-04-29T11:38:48.260Z,6.60
2019-04-29T11:41:19.964Z,6.50
2019-04-29T11:43:50.960Z,6.40
2019-04-29T11:46:21.059Z,6.60
2019-04-29T11:48:51.936Z,6.50
2019-04-29T11:51:55.765Z,6.90
2019-04-29T11:54:12.828Z,7.10
2019-04-29T11:56:41.656Z,6.70
2019-04-29T11:59:42.949Z,6.90
2019-04-29T12:02:48.993Z,6.70
2019-04-29T12:05:35.485Z,6.80
2019-04-29T12:08:11.718Z,6.80
2019-04-29T12:10:38.288Z,7.10
2019-04-29T12:13:14.633Z,6.90
2019-04-29T12:16:08.510Z,7.10
2019-04-29T12:18:55.804Z,6.80
2019-04-29T12:21:35.487Z,6.80
2019-04-29T12:24:06.803Z,7.10
2019-04-29T12:26:44.361Z,6.80
2019-04-29T12:29:20.122Z,6.80
2019-04-29T12:32:20.628Z,7.00
2019-04-29T12:34:56.207Z,7.00
2019-04-29T12:37:42.838Z,7.00
2019-04-29T12:40:39.099Z,7.00
2019-04-29T12:43:27.166Z,6.80
2019-04-29T12:46:10.351Z,6.80
2019-04-29T12:48:39.689Z,7.40
2019-04-29T12:51:08.804Z,7.20
2019-04-29T12:53:37.897Z,7.20
2019-04-29T12:56:11.331Z,7.50
2019-04-29T12:58:39.732Z,7.40
2019-04-29T13:01:18.439Z,7.30
2019-04-29T13:03:54.848Z,7.50
2019-04-29T13:06:39.194Z,7.30
2019-04-29T13:09:17.346Z,7.30
2019-04-29T13:11:47.998Z,7.30
2019-04-29T13:14:08.759Z,7.30
2019-04-29T13:16:45.898Z,7.30
2019-04-29T13:19:39.933Z,7.10
2019-04-29T13:22:10.578Z,7.70
2019-04-29T13:24:42.640Z,7.80
2019-04-29T13:27:16.360Z,7.20
2019-04-29T13:29:44.503Z,7.50
2019-04-29T13:32:13.515Z,7.60
2019-04-29T13:34:44.189Z,7.60
2019-04-29T13:37:19.016Z,7.60
2019-04-29T13:39:44.979Z,7.80
2019-04-29T13:42:17.202Z,7.70
2019-04-29T13:45:05.405Z,7.40
2019-04-29T13:47:35.768Z,7.20
2019-04-29T13:50:18.700Z,7.30
2019-04-29T13:52:43.815Z,7.40
2019-04-29T13:55:17.622Z,7.10
2019-04-29T13:57:49.661Z,7.50
2019-04-29T14:00:49.677Z,7.30
2019-04-29T14:03:32.761Z,7.30
2019-04-29T14:06:04.477Z,7.30
2019-04-29T14:08:32.481Z,7.50
2019-04-29T14:11:01.300Z,7.30
2019-04-29T14:13:30.357Z,7.30
2019-04-29T14:16:03.369Z,7.50
2019-04-29T14:18:35.036Z,7.30
2019-04-29T14:21:06.020Z,7.30
2019-04-29T14:23:34.987Z,7.30
2019-04-29T14:26:17.006Z,7.40
2019-04-29T14:28:51.716Z,7.30
2019-04-29T14:31:30.194Z,7.30
2019-04-29T14:34:20.512Z,7.40
2019-04-29T14:37:25.370Z,7.20
2019-04-29T14:39:47.740Z,7.10
2019-04-29T14:42:30.158Z,7.50
2019-04-29T14:45:05.657Z,7.30
2019-04-29T14:47:49.971Z,7.40
2019-04-29T14:50:20.730Z,7.20
2019-04-29T14:52:50.720Z,7.20
2019-04-29T14:55:24.729Z,7.20
2019-04-29T14:57:53.520Z,7.10
2019-04-29T15:00:36.260Z,7.20
2019-04-29T15:03:08.471Z,7.10
2019-04-29T15:05:43.639Z,7.20
2019-04-29T15:08:14.562Z,7.20
2019-04-29T15:10:48.448Z,7.20
2019-04-29T15:13:21.111Z,7.10
2019-04-29T15:16:09.504Z,7.10
2019-04-29T15:19:13.118Z,7.20
2019-04-29T15:21:49.579Z,7.10
2019-04-29T15:24:20.551Z,7.10
2019-04-29T15:27:07.712Z,7.10
2019-04-29T15:29:36.638Z,7.40
2019-04-29T15:32:05.614Z,7.10
2019-04-29T15:34:34.729Z,7.20
2019-04-29T15:37:15.903Z,7.10
2019-04-29T15:39:48.100Z,7.20
2019-04-29T15:42:19.042Z,7.20
2019-04-29T15:44:58.986Z,7.40
2019-04-29T15:47:33.763Z,7.30
2019-04-29T15:50:18.895Z,7.10
2019-04-29T15:52:42.150Z,7.20
2019-04-29T15:55:16.226Z,7.20
2019-04-29T15:58:03.947Z,7.10
2019-04-29T16:00:37.979Z,7.20
2019-04-29T16:03:05.755Z,7.40
2019-04-29T16:06:04.420Z,7.20
2019-04-29T16:08:31.558Z,7.20
2019-04-29T16:11:23.132Z,7.20
2019-04-29T16:14:15.733Z,7.20
2019-04-29T16:16:55.955Z,7.10
2019-04-29T16:19:27.893Z,7.30
2019-04-29T16:21:56.849Z,7.40
2019-04-29T16:24:38.233Z,7.50
2019-04-29T16:27:10.227Z,7.30
2019-04-29T16:29:39.422Z,7.20
2019-04-29T16:32:11.703Z,7.30
2019-04-29T16:34:44.660Z,7.30
2019-04-29T16:37:19.052Z,7.40
2019-04-29T16:39:45.892Z,7.40
2019-04-29T16:42:39.821Z,7.60
2019-04-29T16:45:18.129Z,7.20
2019-04-29T16:47:59.087Z,7.70
2019-04-29T16:50:28.029Z,7.50
2019-04-29T16:53:28.383Z,7.60
2019-04-29T16:56:33.838Z,7.60
2019-04-29T16:59:09.396Z,7.70
2019-04-29T17:01:44.695Z,7.60
2019-04-29T17:04:21.533Z,7.80
2019-04-29T17:07:11.065Z,7.50
2019-04-29T17:09:43.588Z,7.60
2019-04-29T17:12:23.032Z,7.50
2019-04-29T17:15:23.550Z,7.70
2019-04-29T17:17:34.053Z,7.60
2019-04-29T17:20:18.942Z,7.80
2019-04-29T17:22:53.787Z,7.70
2019-04-29T17:25:23.565Z,7.80
2019-04-29T17:28:25.472Z,7.90
2019-04-29T17:31:18.815Z,7.80
2019-04-29T17:34:00.805Z,8.00
2019-04-29T17:36:35.320Z,8.20
2019-04-29T17:39:07.524Z,7.80
2019-04-29T17:41:36.524Z,7.80
2019-04-29T17:44:14.554Z,7.70
2019-04-29T17:47:07.134Z,8.20
2019-04-29T17:50:08.888Z,7.80
2019-04-29T17:52:37.841Z,8.10
2019-04-29T17:55:15.069Z,7.90
2019-04-29T17:58:07.674Z,7.80
2019-04-29T18:01:11.658Z,7.90
2019-04-29T18:04:16.667Z,7.90
2019-04-29T18:07:22.853Z,8.20
2019-04-29T18:10:05.086Z,7.80
2019-04-29T18:12:41.061Z,7.90
2019-04-29T18:15:06.103Z,7.90
2019-04-29T18:17:36.993Z,8.00
2019-04-29T18:20:33.067Z,8.10
2019-04-29T18:23:25.564Z,8.10
2019-04-29T18:26:18.380Z,7.80
2019-04-29T18:28:56.869Z,8.20
2019-04-29T18:31:35.568Z,8.00
2019-04-29T18:34:08.401Z,7.80
2019-04-29T18:36:40.553Z,7.60
2019-04-29T18:39:13.624Z,8.20
2019-04-29T18:41:48.399Z,7.90
2019-04-29T18:44:19.485Z,7.90
2019-04-29T18:46:53.584Z,8.00
2019-04-29T18:49:18.576Z,7.80
2019-04-29T18:51:57.913Z,8.10
2019-04-29T18:54:27.210Z,7.80
2019-04-29T18:56:58.052Z,7.90
2019-04-29T18:59:34.481Z,7.90
2019-04-29T19:02:21.544Z,7.90
2019-04-29T19:05:02.305Z,8.20
2019-04-29T19:07:31.915Z,8.10
2019-04-29T19:10:02.090Z,8.00
2019-04-29T19:12:36.487Z,7.80
2019-04-29T19:15:11.442Z,8.10
2019-04-29T19:17:42.138Z,8.00
2019-04-29T19:20:18.277Z,7.70
2019-04-29T19:22:47.258Z,7.70
2019-04-29T19:25:33.076Z,7.70
2019-04-29T19:28:12.658Z,7.90
2019-04-29T19:30:45.784Z,7.60
2019-04-29T19:33:35.672Z,7.70
2019-04-29T19:36:08.227Z,7.90
2019-04-29T19:38:43.294Z,7.60
2019-04-29T19:41:17.960Z,7.50
2019-04-29T19:43:48.374Z,7.50
2019-04-29T19:46:24.303Z,7.80
2019-04-29T19:49:25.807Z,7.60
2019-04-29T19:52:31.285Z,7.40
2019-04-29T19:55:33.154Z,7.50
2019-04-29T19:58:06.637Z,7.80
2019-04-29T20:00:40.768Z,7.70
2019-04-29T20:03:22.976Z,7.80
2019-04-29T20:05:51.994Z,7.80
2019-04-29T20:08:48.473Z,7.80
2019-04-29T20:11:11.609Z,7.50
2019-04-29T20:13:41.200Z,7.80
2019-04-29T20:16:43.330Z,7.80
2019-04-29T20:19:20.813Z,7.60
2019-04-29T20:21:46.789Z,7.80
2019-04-29T20:24:17.856Z,7.80
2019-04-29T20:26:47.131Z,7.70
2019-04-29T20:29:17.424Z,7.70
2019-04-29T20:31:52.034Z,7.70
2019-04-29T20:34:23.957Z,7.60
2019-04-29T20:36:48.816Z,7.50
2019-04-29T20:39:23.042Z,7.50
2019-04-29T20:41:49.215Z,7.80
2019-04-29T20:44:24.591Z,7.50
2019-04-29T20:47:14.235Z,7.80
2019-04-29T20:49:30.888Z,7.60
2019-04-29T20:52:07.088Z,7.50
2019-04-29T20:54:36.328Z,7.80
2019-04-29T20:57:20.025Z,7.50
2019-04-29T20:59:48.894Z,7.50
2019-04-29T21:02:31.199Z,7.80
2019-04-29T21:05:01.485Z,7.50
2019-04-29T21:07:34.675Z,7.70
2019-04-29T21:10:08.410Z,7.40
2019-04-29T21:12:49.160Z,7.50
2019-04-29T21:15:24.950Z,7.80
2019-04-29T21:17:58.407Z,7.50
2019-04-29T21:20:29.327Z,7.50
2019-04-29T21:23:00.932Z,7.50
2019-04-29T21:25:29.372Z,7.50
2019-04-29T21:28:08.304Z,7.50
2019-04-29T21:30:42.999Z,7.50
2019-04-29T21:33:21.184Z,7.80
2019-04-29T21:36:05.322Z,7.80
2019-04-29T21:39:06.077Z,7.50
2019-04-29T21:41:39.585Z,7.80
2019-04-29T21:44:10.444Z,7.80
2019-04-29T21:46:39.417Z,7.80
2019-04-29T21:49:11.570Z,7.40
2019-04-29T21:51:41.781Z,7.40
2019-04-29T21:54:21.593Z,7.20
2019-04-29T21:56:50.477Z,7.60
2019-04-29T21:59:20.380Z,7.40
2019-04-29T22:01:49.441Z,7.40
2019-04-29T22:04:19.285Z,7.50
2019-04-29T22:06:48.212Z,7.50
2019-04-29T22:09:20.177Z,7.50
2019-04-29T22:11:49.101Z,7.30
2019-04-29T22:14:22.190Z,7.20
2019-04-29T22:16:54.286Z,7.50
2019-04-29T22:19:26.753Z,7.50
2019-04-29T22:21:57.866Z,7.50
2019-04-29T22:24:26.311Z,7.10
2019-04-29T22:27:03.649Z,7.40
2019-04-29T22:29:26.635Z,7.00
2019-04-29T22:31:57.448Z,7.00
2019-04-29T22:34:26.331Z,7.00
2019-04-29T22:37:01.400Z,6.70
2019-04-29T22:39:30.350Z,6.70
2019-04-29T22:42:27.861Z,6.40
2019-04-29T22:44:59.634Z,6.40
2019-04-29T22:47:28.095Z,6.60
2019-04-29T22:50:03.203Z,6.40
2019-04-29T22:52:29.997Z,6.30
2019-04-29T22:55:01.868Z,6.50
2019-04-29T22:57:32.673Z,6.10
2019-04-29T23:00:01.529Z,6.40
2019-04-29T23:02:30.343Z,6.30
2019-04-29T23:05:00.130Z,6.00
2019-04-29T23:07:30.997Z,6.10
2019-04-29T23:10:00.887Z,6.00
2019-04-29T23:12:29.802Z,6.20
2019-04-29T23:14:59.716Z,6.00
2019-04-29T23:17:30.570Z,5.90
2019-04-29T23:20:05.796Z,5.80
2019-04-29T23:22:46.323Z,5.80
2019-04-29T23:25:21.848Z,5.70
2019-04-29T23:27:52.717Z,5.80
2019-04-29T23:30:27.808Z,5.90
2019-04-29T23:32:56.904Z,5.70
2019-04-29T23:35:25.805Z,5.60
2019-04-29T23:38:04.044Z,5.70
2019-04-29T23:40:30.031Z,5.50
2019-04-29T23:43:07.902Z,5.50
2019-04-29T23:45:36.878Z,5.60
2019-04-29T23:48:05.850Z,5.40
2019-04-29T23:50:36.034Z,5.30
2019-04-29T23:53:07.964Z,5.30
2019-04-29T23:55:40.106Z,5.20
2019-04-29T23:58:28.115Z,5.10
